Terminal Aerodrome Forecast
Issued by NWS

Home | Current Version | Previous Version | Text Only | Print | Product List | Glossary On
Versions: 1 2 3 4 5 6 7 8 9 10 11 12 13 14 15 16 17 18 19 20 21 22 23 24 25 26 27 28 29 30 31
000
FTUS41 KBUF 190700 CCA
TAFJHW
TAF COR
KJHW 190726Z 1906/2006 VRB03KT 1SM BR BKN002
      TEMPO 1907/1911 1/4SM FG
     FM191200 11005KT 3SM BR SCT007 SCT250
     FM191600 14006KT P6SM FEW250
     FM192000 17008KT P6SM SKC
     FM200300 17010G20KT P6SM SCT045 WS015/18040KT
      AMD LTD TO CLD VIS AND WIND=

USA.gov is the U.S. government's official web portal to all federal, state and local government web resources and services.